createdAt,value
2023-03-11T00:03:37.282Z,12.28
2023-03-11T00:07:51.455Z,12.25
2023-03-11T00:12:05.711Z,12.29
2023-03-11T00:16:23.486Z,12.33
2023-03-11T00:20:43.142Z,12.12
2023-03-11T00:24:58.022Z,11.88
2023-03-11T00:29:12.004Z,11.72
2023-03-11T00:33:26.711Z,11.75
2023-03-11T00:37:39.128Z,11.87
2023-03-11T00:41:52.108Z,11.89
2023-03-11T00:46:06.520Z,11.98
2023-03-11T00:50:22.488Z,11.99
2023-03-11T00:54:34.895Z,12.27
2023-03-11T00:58:47.477Z,12.17
2023-03-11T01:03:00.888Z,12.18
2023-03-11T01:07:13.341Z,12.25
2023-03-11T01:11:25.695Z,12.29
2023-03-11T01:15:39.269Z,12.32
2023-03-11T01:19:51.942Z,12.48
2023-03-11T01:24:04.518Z,12.48
2023-03-11T01:28:17.260Z,12.67
2023-03-11T01:32:29.639Z,12.64
2023-03-11T01:36:42.039Z,12.67
2023-03-11T01:40:54.591Z,12.73
2023-03-11T01:45:32.737Z,12.84
2023-03-11T01:49:45.848Z,12.82
2023-03-11T01:54:04.087Z,12.88
2023-03-11T01:58:24.612Z,12.93
2023-03-11T02:02:45.400Z,12.89
2023-03-11T02:06:59.282Z,12.86
2023-03-11T02:11:19.656Z,12.87
2023-03-11T02:15:32.243Z,12.80
2023-03-11T02:19:56.687Z,12.73
2023-03-11T02:24:24.552Z,12.71
2023-03-11T02:28:41.429Z,12.67
2023-03-11T02:32:56.414Z,12.69
2023-03-11T02:37:11.754Z,12.78
2023-03-11T02:41:28.242Z,12.74
2023-03-11T02:45:44.489Z,12.74
2023-03-11T02:49:58.486Z,12.70
2023-03-11T02:54:11.027Z,12.76
2023-03-11T02:58:23.892Z,12.71
2023-03-11T03:02:37.497Z,12.68
2023-03-11T03:06:50.731Z,12.60
2023-03-11T03:11:03.655Z,12.62
2023-03-11T03:15:16.381Z,12.62
2023-03-11T03:19:29.883Z,12.59
2023-03-11T03:23:42.451Z,12.57
2023-03-11T03:27:55.386Z,12.56
2023-03-11T03:32:09.467Z,12.43
2023-03-11T03:36:22.095Z,12.42
2023-03-11T03:40:46.093Z,12.42
2023-03-11T03:44:59.895Z,12.39
2023-03-11T03:49:12.474Z,12.37
2023-03-11T03:53:32.340Z,12.38
2023-03-11T03:57:46.134Z,12.33
2023-03-11T04:01:59.844Z,12.27
2023-03-11T04:06:27.180Z,12.34
2023-03-11T04:10:58.572Z,12.43
2023-03-11T04:15:12.882Z,12.31
2023-03-11T04:19:28.114Z,12.19
2023-03-11T04:23:40.911Z,12.08
2023-03-11T04:27:54.476Z,12.16
2023-03-11T04:32:08.425Z,12.15
2023-03-11T04:36:21.996Z,12.20
2023-03-11T04:40:35.098Z,12.19
2023-03-11T04:44:47.495Z,12.24
2023-03-11T04:49:00.124Z,12.21
2023-03-11T04:53:12.964Z,12.16
2023-03-11T04:57:25.588Z,12.05
2023-03-11T05:01:38.221Z,12.01
2023-03-11T05:05:56.859Z,12.18
2023-03-11T05:10:10.140Z,12.20
2023-03-11T05:14:23.635Z,12.15
2023-03-11T05:18:37.270Z,12.01
2023-03-11T05:22:50.578Z,11.86
2023-03-11T05:27:04.377Z,11.80
2023-03-11T05:31:18.230Z,11.97
2023-03-11T05:35:31.059Z,12.08
2023-03-11T05:39:43.960Z,12.18
2023-03-11T05:44:00.476Z,12.25
2023-03-11T05:48:13.761Z,12.37
2023-03-11T05:52:31.458Z,12.34
2023-03-11T05:56:46.150Z,12.33
2023-03-11T06:01:01.944Z,12.41
2023-03-11T06:05:14.996Z,12.38
2023-03-11T06:09:30.820Z,12.52
2023-03-11T06:13:43.580Z,12.96
2023-03-11T06:17:56.547Z,12.75
2023-03-11T06:22:10.950Z,12.59
2023-03-11T06:26:24.464Z,12.49
2023-03-11T06:30:37.504Z,12.61
2023-03-11T06:34:54.762Z,13.08
2023-03-11T06:39:09.305Z,12.96
2023-03-11T06:43:22.954Z,12.63
2023-03-11T06:47:35.787Z,12.46
2023-03-11T06:51:48.237Z,12.39
2023-03-11T06:56:05.108Z,12.82
2023-03-11T07:00:22.302Z,13.22
2023-03-11T07:04:39.728Z,13.70
2023-03-11T07:08:54.127Z,14.18
2023-03-11T07:13:06.832Z,14.71
2023-03-11T07:17:19.353Z,15.01
2023-03-11T07:21:35.356Z,15.73
2023-03-11T07:25:48.640Z,16.16
2023-03-11T07:30:03.641Z,15.69
2023-03-11T07:34:16.555Z,16.11
2023-03-11T07:38:29.177Z,16.13
2023-03-11T07:42:42.642Z,16.65
2023-03-11T07:46:56.270Z,17.19
2023-03-11T07:51:11.847Z,16.53
2023-03-11T07:55:24.201Z,15.68
2023-03-11T07:59:36.554Z,15.86
2023-03-11T08:03:51.706Z,16.29
2023-03-11T08:08:04.187Z,16.30
2023-03-11T08:12:16.864Z,15.62
2023-03-11T08:16:29.879Z,15.67
2023-03-11T08:20:42.242Z,16.16
2023-03-11T08:24:55.265Z,16.22
2023-03-11T08:29:09.091Z,15.88
2023-03-11T08:33:22.539Z,16.34
2023-03-11T08:37:36.045Z,16.48
2023-03-11T08:41:48.352Z,16.26
2023-03-11T08:46:02.345Z,15.82
2023-03-11T08:50:19.408Z,15.95
2023-03-11T08:54:33.216Z,16.10
2023-03-11T08:58:46.301Z,15.84
2023-03-11T09:02:58.847Z,15.87
2023-03-11T09:07:13.377Z,15.86
2023-03-11T09:11:25.809Z,15.78
2023-03-11T09:15:39.126Z,15.87
2023-03-11T09:19:53.967Z,16.31
2023-03-11T09:24:07.381Z,16.72
2023-03-11T09:28:19.806Z,17.49
2023-03-11T09:32:32.220Z,17.66
2023-03-11T09:36:44.804Z,17.93
2023-03-11T09:41:03.255Z,18.33
2023-03-11T09:45:22.176Z,17.72
2023-03-11T09:49:52.971Z,17.61
2023-03-11T09:54:11.753Z,16.71
2023-03-11T09:58:38.989Z,16.17
2023-03-11T10:02:51.852Z,15.27
2023-03-11T10:07:14.893Z,14.86
2023-03-11T10:11:47.389Z,15.27
2023-03-11T10:16:14.277Z,15.96
2023-03-11T10:20:59.711Z,17.22
2023-03-11T10:25:17.061Z,17.10
2023-03-11T10:29:48.002Z,16.87
2023-03-11T10:34:32.816Z,16.49
2023-03-11T10:38:51.643Z,15.64
2023-03-11T10:43:11.030Z,15.35
2023-03-11T10:47:26.324Z,15.27
2023-03-11T10:51:39.278Z,15.51
2023-03-11T10:55:57.255Z,15.97
2023-03-11T11:00:28.358Z,16.44
2023-03-11T11:04:41.391Z,16.31
2023-03-11T11:09:16.322Z,16.69
2023-03-11T11:13:32.592Z,17.49
2023-03-11T11:17:48.105Z,17.74
2023-03-11T11:22:06.401Z,18.10
2023-03-11T11:26:25.447Z,18.08
2023-03-11T11:30:38.906Z,17.34
2023-03-11T11:35:11.543Z,16.68
2023-03-11T11:39:28.987Z,16.26
2023-03-11T11:44:16.081Z,16.49
2023-03-11T11:48:39.374Z,16.58
2023-03-11T11:53:14.229Z,16.58
2023-03-11T11:57:26.568Z,16.57
2023-03-11T12:02:06.014Z,16.38
2023-03-11T12:06:33.219Z,16.20
2023-03-11T12:10:57.718Z,16.37
2023-03-11T12:15:20.909Z,16.43
2023-03-11T12:19:51.522Z,15.77
2023-03-11T12:24:41.168Z,15.62
2023-03-11T12:29:08.351Z,15.56
2023-03-11T12:33:43.035Z,15.69
2023-03-11T12:38:03.030Z,15.72
2023-03-11T12:42:22.771Z,15.90
2023-03-11T12:47:10.618Z,16.09
2023-03-11T12:56:38.148Z,16.11
2023-03-11T13:01:10.211Z,16.34
2023-03-11T13:05:30.396Z,16.54
2023-03-11T13:09:45.312Z,16.15
2023-03-11T13:14:18.746Z,16.67
2023-03-11T13:18:33.213Z,16.61
2023-03-11T13:23:10.231Z,17.00
2023-03-11T13:27:39.324Z,17.17
2023-03-11T13:32:18.011Z,17.54
2023-03-11T13:36:36.198Z,17.44
2023-03-11T13:40:48.928Z,17.18
2023-03-11T13:45:05.203Z,16.79
2023-03-11T13:49:20.199Z,17.52
2023-03-11T13:53:42.808Z,16.97
2023-03-11T13:57:57.774Z,16.76
2023-03-11T14:02:19.858Z,16.15
2023-03-11T14:06:32.292Z,16.12
2023-03-11T14:10:55.736Z,15.93
2023-03-11T14:15:10.128Z,15.86
2023-03-11T14:19:22.554Z,15.67
2023-03-11T14:23:47.152Z,15.40
2023-03-11T14:28:07.038Z,15.30
2023-03-11T14:32:29.028Z,14.91
2023-03-11T14:36:58.941Z,14.93
2023-03-11T14:41:17.461Z,14.84
2023-03-11T14:45:35.027Z,14.74
2023-03-11T14:49:52.326Z,14.49
2023-03-11T14:54:17.961Z,14.14
2023-03-11T14:58:49.203Z,14.17
2023-03-11T15:03:12.878Z,14.16
2023-03-11T15:07:25.351Z,14.17
2023-03-11T15:12:01.167Z,14.05
2023-03-11T15:16:31.995Z,13.96
2023-03-11T15:20:44.434Z,14.00
2023-03-11T15:25:02.510Z,14.11
2023-03-11T15:29:17.510Z,14.20
2023-03-11T15:33:35.279Z,14.36
2023-03-11T15:37:49.313Z,14.35
2023-03-11T15:42:03.786Z,14.24
2023-03-11T15:46:16.143Z,14.19
2023-03-11T15:50:43.078Z,14.13
2023-03-11T15:54:59.454Z,13.98
2023-03-11T15:59:16.969Z,13.98
2023-03-11T16:03:31.357Z,14.10
2023-03-11T16:07:44.376Z,14.00
2023-03-11T16:11:56.708Z,13.94
2023-03-11T16:16:19.077Z,13.96
2023-03-11T16:20:38.062Z,13.93
2023-03-11T16:24:53.110Z,13.94
2023-03-11T16:29:18.283Z,13.86
2023-03-11T16:33:31.742Z,13.77
2023-03-11T16:37:44.559Z,13.64
2023-03-11T16:41:56.997Z,13.59
2023-03-11T16:46:09.414Z,13.45
2023-03-11T16:50:24.629Z,13.53
2023-03-11T16:54:37.063Z,13.40
2023-03-11T16:58:49.905Z,13.43
2023-03-11T17:03:02.392Z,13.23
2023-03-11T17:07:17.391Z,13.39
2023-03-11T17:11:30.926Z,13.14
2023-03-11T17:15:47.214Z,13.08
2023-03-11T17:19:59.518Z,13.03
2023-03-11T17:24:12.181Z,12.85
2023-03-11T17:28:24.853Z,12.68
2023-03-11T17:32:37.259Z,12.63
2023-03-11T17:36:50.742Z,12.55
2023-03-11T17:41:16.376Z,12.57
2023-03-11T17:45:28.878Z,12.60
2023-03-11T17:49:41.370Z,12.53
2023-03-11T17:53:55.684Z,12.61
2023-03-11T17:58:09.214Z,12.54
2023-03-11T18:02:24.759Z,12.50
2023-03-11T18:06:37.262Z,12.61
2023-03-11T18:10:58.019Z,12.47
2023-03-11T18:15:19.586Z,12.52
2023-03-11T18:19:32.147Z,12.46
2023-03-11T18:23:45.230Z,12.41
2023-03-11T18:28:00.619Z,12.42
2023-03-11T18:32:13.873Z,12.53
2023-03-11T18:36:32.646Z,12.49
2023-03-11T18:40:45.027Z,12.52
2023-03-11T18:45:00.270Z,12.54
2023-03-11T18:49:13.834Z,12.65
2023-03-11T18:53:26.912Z,12.76
2023-03-11T18:57:42.127Z,12.82
2023-03-11T19:01:55.920Z,12.72
2023-03-11T19:06:10.969Z,12.91
2023-03-11T19:10:24.927Z,12.83
2023-03-11T19:14:37.354Z,12.86
2023-03-11T19:18:50.689Z,12.77
2023-03-11T19:23:06.179Z,12.60
2023-03-11T19:27:18.486Z,12.60
2023-03-11T19:31:30.879Z,12.63
2023-03-11T19:35:44.747Z,12.56
2023-03-11T19:39:57.306Z,12.52
2023-03-11T19:44:09.652Z,12.41
2023-03-11T19:48:24.311Z,12.30
2023-03-11T19:52:36.686Z,12.25
2023-03-11T19:56:50.598Z,12.12
2023-03-11T20:01:03.240Z,12.22
2023-03-11T20:05:16.705Z,12.12
2023-03-11T20:09:30.503Z,11.99
2023-03-11T20:13:44.307Z,12.00
2023-03-11T20:17:56.730Z,11.95
2023-03-11T20:22:11.270Z,11.91
2023-03-11T20:26:24.920Z,12.18
2023-03-11T20:30:39.383Z,12.12
2023-03-11T20:34:52.524Z,12.09
2023-03-11T20:39:08.606Z,12.09
2023-03-11T20:43:22.677Z,12.02
2023-03-11T20:47:35.025Z,11.99
2023-03-11T20:51:48.411Z,12.22
2023-03-11T20:56:07.862Z,12.28
2023-03-11T21:00:21.204Z,12.33
2023-03-11T21:04:35.771Z,12.28
2023-03-11T21:08:48.328Z,12.26
2023-03-11T21:13:01.491Z,12.23
2023-03-11T21:17:14.231Z,12.27
2023-03-11T21:21:26.739Z,12.16
2023-03-11T21:25:45.461Z,12.02
2023-03-11T21:29:59.274Z,11.97
2023-03-11T21:34:12.101Z,11.93
2023-03-11T21:38:25.155Z,11.86
2023-03-11T21:42:37.578Z,11.72
2023-03-11T21:46:50.242Z,11.83
2023-03-11T21:51:04.169Z,12.03
2023-03-11T21:55:16.640Z,11.97
2023-03-11T21:59:30.844Z,11.83
2023-03-11T22:03:45.211Z,11.87
2023-03-11T22:07:58.058Z,11.79
2023-03-11T22:12:13.336Z,11.78
2023-03-11T22:16:25.827Z,11.62
2023-03-11T22:20:40.801Z,11.64
2023-03-11T22:24:57.614Z,11.57
2023-03-11T22:29:13.464Z,11.71
2023-03-11T22:33:26.424Z,11.68
2023-03-11T22:37:38.846Z,11.60
2023-03-11T22:41:51.271Z,11.61
2023-03-11T22:46:06.793Z,11.54
2023-03-11T22:50:19.744Z,11.59
2023-03-11T22:54:32.092Z,11.81
2023-03-11T22:58:45.116Z,11.78
2023-03-11T23:02:57.601Z,11.53
2023-03-11T23:07:11.296Z,11.23
2023-03-11T23:11:24.114Z,11.51
2023-03-11T23:15:36.551Z,11.53
2023-03-11T23:19:50.058Z,11.42
2023-03-11T23:24:06.266Z,11.26
2023-03-11T23:28:20.544Z,11.14
2023-03-11T23:32:32.923Z,11.25
2023-03-11T23:36:45.426Z,11.36
2023-03-11T23:40:58.756Z,11.22
2023-03-11T23:45:11.445Z,11.14
2023-03-11T23:49:27.987Z,11.13
2023-03-11T23:53:40.225Z,11.16
2023-03-11T23:57:52.729Z,11.25
